Elloree, SC

4:54 AM EDT on May 27, 2015 (GMT -0400)
Santee State Park-K9YS | | Change Station
CLOSE
Current Station
Personal Weather Station
Location: Santee, SC
Elevation: 135 ft
Nearby Weather Stations

Elev 135 ft 33.52 °N, 80.50 °W | Updated 45 seconds ago

Partly Cloudy
Partly Cloudy
68.8 °F
Feels Like 68.8 °F
N
0.0
Wind Variable Wind from SSE
Gusts 0.0 mph

Today
High -- | Low -- °F
--% Chance of Precip.
Yesterday
High -- | Low -- °F
Precip. -- in
6:15 AM 8:24 PM
Waxing Gibbous, 65% visible
Pressure 30.19 in
Visibility 10.0 miles
Clouds Overcast 1400 ft
Dew Point 67 °F
Humidity 95%
Rainfall 0.00 in
Snow Depth Not available.
UV 0 out of 12
Pollen 5.90 out of 12
Air Quality Not available.
Flu Activity Local Activity
SPECI KOGB 270835Z AUTO 00000KT 10SM OVC014 21/19 A3019 RMK AO2 T02060194

More Conditions Fewer Conditions

Pressure 30.19 in
Visibility 10.0 miles
Clouds Overcast 1400 ft
Dew Point 67 °F
Humidity 95%
Rainfall 0.00 in
Snow Depth Not available.
UV 0 out of 12
Pollen 5.90 out of 12
Air Quality Not available.
Flu Activity Local Activity
SPECI KOGB 270835Z AUTO 00000KT 10SM OVC014 21/19 A3019 RMK AO2 T02060194

More Conditions Fewer Conditions

10-Day Weather Forecast

Almanac

Astronomy

May. 27, 2015 Rise Set
Actual Time
Civil Twilight
Nautical Twilight
Astronomical Twilight
Moon
Length of Visible Light
Length of Day
Tomorrow will be .
, % of the Moon is Illuminated

Today's Extremes

State Highs State Lows

Community

WunderPhotos

Upload Photos

1,824,634 photos uploaded!

WunderBlogs® & News

Nearby

Air Quality

  Air Quality AQ Index Pollutant
Not available.

Snow Depth

Station Depth Elevation

Earthquake Activity

City Distance Mag. Time & Date
Minimum magnitude displayed is 2.5.

Coastal Water Temperatures

Place Temperature

Stations

Nearby Weather Stations

Station Location Temp. Windchill Dew Point Humidity Wind Precip. Elev Updated Type